Aérodrome :
LOGIN :

S'inscrire | Disclaimer

   EN    FR    IT 

 










Légende :    VFR   VFR Marginal   IFR   IFR Intensif   IFR Très Intensif
Visi : 
Plafond : 
>= 8 km
>= 3000ft
5 à 8 km
1000 à 3000 ft
1500m à 5 km
500 à 1000 ft
800 à 1500m
200 à 500 ft
< 800m
< 200 ft
Symboles :   Orages  Brouillard  Fortes neiges  Fortes précipitations  Vent > 20 kt
SIGMETs :   Divers  Orages  Givrage  Turbulence  Onde Orograph.  Cendres Volcan.






- Altitude de l'aérodrome : 49 ft
- Code IATA : GLZ


EHGR - Gilze-Rijen Airbase

DERNIER METAR :
  • 040425Z AUTO 21010KT 170V250 9999 FEW032 OVC037 15/13 Q1014 BLU

METARs EXPIRÉS :
  • 040355Z AUTO 20010KT 160V240 9999 BKN037 OVC041 15/13 Q1015 BLU
  • 040325Z AUTO 20008KT 170V240 9999 FEW015CB SCT042 OVC067 15/13 Q1015 REDZ BLU
  • 040255Z AUTO 22008KT 180V260 9999 DZ FEW015CB OVC040 16/12 Q1015 BLU
  • 040229Z AUTO 21008KT 180V250 9999 FEW015CB BKN062 OVC075 16/12 Q1015 BLU
  • 040155Z AUTO 22008KT 170V260 9999 -DZ FEW065 OVC079 16/12 Q1015 BLU

Prévision TAF périmée.



MET'MAP, la Météo Aéronautique d'un coup d'oeil ! - Copyright ORBIFLY Décembre 2007 - Disclaimer

ORBIFLY MET'MAP TEAM :

Programmation & Développement : Alexandra Zaïnal
Sur une idée originale de : Baudouin d'Aumeries
Assistance à la programmation : Marc-Olivier Méhu
Soutien technique & logistique : Manuel Goepfert

Contact : metmap@orbifly.com




SOURCES & CREDITS :

   NOAA